EGBB/BHX METAR and TAF weather

Enter ICAO airport designator
Station Type Date Time Source
EGBB METAR 2019/02/23 02:20 UTC NOAA

EGBB 230220Z 15006KT 6000 NSC 03/03 Q1032


Station Type Date Time Source
EGBB Decoded METAR 2019/02/23 02:20 UTC NOAA

Birmingham / Airport, United Kingdom (EGBB) 52-27N 001-44W 0M
Feb 22, 2019 - 09:20 PM EST / 2019.02.23 0220 UTC
Wind: from the SSE (150 degrees) at 7 MPH (6 KT):0
Visibility: 3 mile(s):0
Temperature: 37 F (3 C)
Dew Point: 37 F (3 C)
Relative Humidity: 100%
Pressure (altimeter): 30.47 in. Hg (1032 hPa)
ob: EGBB 230220Z 15006KT 6000 NSC 03/03 Q1032
cycle: 2

Station Type Date Time Source
EGBB TAF 2019/02/23 00:23 UTC NOAA

TAF
AMD EGBB 230015Z 2300/2324 16005KT 9999 FEW045
TEMPO 2300/2309 3000 BR BKN004 PROB30
TEMPO 2300/2309 0800 FG BKN001
TEMPO 2316/2318 8000
BECMG 2318/2321 7000
TEMPO 2321/2324 4000 BR PROB30
TEMPO 2323/2324 0800 FG BKN001


Example: see airport list